Time;durP1;ratioP1;P1;durP2;ratioP2;P2;SDS_P1;SDS_P2;PMS_P1;PMS_P2;Temp;Humidity;BMP_temperature;BMP_pressure;BME280_temperature;BME280_humidity;BME280_pressure;Samples;Min_cycle;Max_cycle;Signal;HPM_P1;HPM_P2
2023/07/17 00:00:30;;;;;;;5.82;2.30;;;20.40;66.80;;;;;;5071235;28;20029;-67
2023/07/17 00:02:56;;;;;;;6.78;2.13;;;20.40;67.20;;;;;;5071110;28;20078;-67
2023/07/17 00:05:22;;;;;;;9.93;2.90;;;20.30;67.50;;;;;;5071858;28;20449;-67
2023/07/17 00:07:48;;;;;;;8.07;2.95;;;20.30;67.70;;;;;;5073661;28;20024;-67
2023/07/17 00:10:14;;;;;;;7.22;2.63;;;20.30;67.90;;;;;;5069878;28;20123;-67
2023/07/17 00:12:41;;;;;;;7.47;2.97;;;20.30;68.00;;;;;;5072849;28;20489;-67
2023/07/17 00:15:08;;;;;;;6.32;2.45;;;20.30;68.10;;;;;;5054148;28;20020;-67
2023/07/17 00:17:34;;;;;;;5.50;2.22;;;20.30;68.20;;;;;;5072864;28;20039;-67
2023/07/17 00:20:01;;;;;;;5.28;2.30;;;20.20;68.20;;;;;;5071567;28;20097;-67
2023/07/17 00:22:26;;;;;;;6.45;2.88;;;20.30;68.50;;;;;;5054464;28;20017;-67
2023/07/17 00:24:53;;;;;;;8.05;2.83;;;20.20;68.60;;;;;;5070814;28;20048;-66
2023/07/17 00:27:20;;;;;;;6.32;2.55;;;20.20;68.50;;;;;;5054765;28;20034;-67
2023/07/17 00:29:46;;;;;;;6.20;2.80;;;20.20;68.70;;;;;;5051085;28;20020;-67
2023/07/17 00:32:12;;;;;;;6.65;3.10;;;20.30;68.80;;;;;;5039040;28;20108;-67
2023/07/17 00:34:39;;;;;;;7.07;3.00;;;20.20;68.80;;;;;;5053325;28;20135;-67
2023/07/17 00:37:06;;;;;;;6.18;2.88;;;20.20;69.00;;;;;;5072388;28;20095;-67
2023/07/17 00:39:32;;;;;;;6.47;3.10;;;20.20;69.00;;;;;;5070154;28;20051;-67
2023/07/17 00:41:58;;;;;;;7.18;3.00;;;20.20;69.20;;;;;;5073300;28;20513;-67
2023/07/17 00:44:25;;;;;;;6.80;2.90;;;20.20;69.20;;;;;;5071214;28;20039;-67
2023/07/17 00:46:54;;;;;;;9.35;3.47;;;20.20;69.00;;;;;;5069488;28;20033;-67
2023/07/17 00:49:23;;;;;;;6.38;2.67;;;20.20;68.90;;;;;;5072588;28;20442;-67
2023/07/17 00:51:50;;;;;;;6.30;3.00;;;20.20;68.90;;;;;;5072865;28;20082;-67
2023/07/17 00:54:18;;;;;;;6.05;2.40;;;20.20;68.90;;;;;;5054382;28;20112;-67
2023/07/17 00:56:44;;;;;;;6.50;2.40;;;20.20;68.80;;;;;;5054661;28;20436;-67
2023/07/17 00:59:11;;;;;;;6.65;3.05;;;20.20;68.80;;;;;;5054465;28;20120;-67
2023/07/17 01:01:38;;;;;;;6.30;2.65;;;20.20;68.80;;;;;;5072390;28;20036;-67
2023/07/17 01:04:05;;;;;;;6.65;2.97;;;20.10;68.80;;;;;;5053803;28;20025;-67
2023/07/17 01:06:31;;;;;;;6.82;2.97;;;20.10;68.90;;;;;;5052465;28;20016;-67
2023/07/17 01:08:58;;;;;;;7.13;3.40;;;20.10;69.00;;;;;;5073566;28;20459;-67
2023/07/17 01:11:24;;;;;;;7.75;3.42;;;20.10;69.00;;;;;;5048345;28;20465;-67
2023/07/17 01:13:51;;;;;;;7.40;3.08;;;20.00;68.90;;;;;;5073324;28;20089;-67
2023/07/17 01:16:17;;;;;;;7.90;3.40;;;20.00;69.00;;;;;;5070992;28;20384;-66
2023/07/17 01:18:43;;;;;;;6.50;2.55;;;20.00;69.10;;;;;;5072707;28;20358;-67
2023/07/17 01:21:13;;;;;;;8.75;3.20;;;20.00;69.20;;;;;;5071172;28;20465;-67
2023/07/17 01:23:40;;;;;;;6.38;2.83;;;19.90;69.30;;;;;;5076544;28;20107;-67
2023/07/17 01:26:16;;;;;;;8.25;3.30;;;19.90;69.30;;;;;;5057809;28;20449;-67
2023/07/17 01:28:43;;;;;;;7.13;3.65;;;19.90;69.40;;;;;;5068495;28;20032;-67
2023/07/17 01:31:10;;;;;;;6.57;3.38;;;19.90;69.50;;;;;;5056779;28;20422;-67
2023/07/17 01:33:36;;;;;;;8.85;3.28;;;19.90;69.70;;;;;;5075872;28;20043;-67
2023/07/17 01:36:04;;;;;;;7.30;3.03;;;19.90;69.60;;;;;;5057650;28;20074;-67
2023/07/17 01:38:30;;;;;;;10.07;3.30;;;19.90;69.50;;;;;;5071357;28;20074;-67
2023/07/17 01:40:56;;;;;;;6.85;3.08;;;19.90;69.50;;;;;;5073742;28;20078;-66
2023/07/17 01:43:23;;;;;;;6.53;2.88;;;19.90;69.40;;;;;;5057417;28;20025;-67
2023/07/17 01:45:49;;;;;;;9.07;3.22;;;19.90;69.30;;;;;;5075636;28;20094;-67
2023/07/17 01:48:17;;;;;;;7.97;3.17;;;19.80;69.20;;;;;;5057533;28;20358;-67
2023/07/17 01:50:47;;;;;;;7.55;3.50;;;19.80;69.30;;;;;;5073042;28;20078;-66
2023/07/17 01:53:18;;;;;;;8.07;2.97;;;19.80;69.40;;;;;;5058350;28;20028;-67
2023/07/17 01:55:44;;;;;;;8.15;3.63;;;19.80;69.40;;;;;;5074263;28;20063;-67
2023/07/17 01:58:11;;;;;;;7.93;3.28;;;19.80;69.40;;;;;;5042040;28;20035;-66
2023/07/17 02:00:37;;;;;;;7.22;3.22;;;19.80;69.30;;;;;;5055119;28;20032;-67
2023/07/17 02:03:03;;;;;;;7.80;3.45;;;19.80;69.40;;;;;;5075949;28;20111;-66
2023/07/17 02:05:29;;;;;;;6.72;2.67;;;19.70;69.30;;;;;;5075289;28;20027;-67
2023/07/17 02:07:55;;;;;;;7.13;3.60;;;19.70;69.40;;;;;;5055944;28;20115;-66
2023/07/17 02:10:20;;;;;;;7.43;3.30;;;19.70;69.50;;;;;;5073739;28;20033;-66
2023/07/17 02:12:46;;;;;;;7.57;3.05;;;19.70;69.60;;;;;;5055992;28;20021;-67
2023/07/17 02:15:13;;;;;;;8.15;3.53;;;19.70;69.70;;;;;;5075949;28;20028;-66
2023/07/17 02:17:38;;;;;;;8.70;3.65;;;19.70;69.70;;;;;;5070993;28;20021;-67
2023/07/17 02:20:09;;;;;;;7.57;2.95;;;19.70;69.80;;;;;;5053091;28;20505;-66
2023/07/17 02:22:36;;;;;;;6.78;3.08;;;19.70;69.80;;;;;;5036822;28;20032;-67
2023/07/17 02:25:05;;;;;;;7.32;2.92;;;19.60;69.80;;;;;;5053329;28;20075;-67
2023/07/17 02:27:32;;;;;;;8.77;3.17;;;19.60;69.70;;;;;;5074352;28;20031;-67
2023/07/17 02:29:58;;;;;;;7.70;3.05;;;19.60;69.70;;;;;;5069701;28;20020;-66
2023/07/17 02:32:25;;;;;;;8.10;3.25;;;19.60;69.70;;;;;;5053277;28;20025;-66
2023/07/17 02:34:51;;;;;;;7.38;3.20;;;19.60;69.70;;;;;;5043067;28;20025;-67
2023/07/17 02:37:17;;;;;;;7.85;3.22;;;19.60;69.70;;;;;;5062552;28;20024;-67
2023/07/17 02:39:42;;;;;;;9.18;3.30;;;19.50;69.70;;;;;;5037332;28;20024;-66
2023/07/17 02:42:08;;;;;;;9.80;3.10;;;19.50;69.80;;;;;;5057449;28;20061;-66
2023/07/17 02:44:35;;;;;;;7.85;3.53;;;19.50;69.90;;;;;;5051533;28;20028;-66
2023/07/17 02:47:01;;;;;;;6.97;3.03;;;19.40;70.00;;;;;;5057040;28;20357;-66
2023/07/17 02:49:27;;;;;;;7.75;3.20;;;19.50;70.10;;;;;;5038872;28;20027;-67
2023/07/17 02:51:52;;;;;;;10.30;3.65;;;19.40;70.10;;;;;;5042592;28;20037;-66
2023/07/17 02:54:21;;;;;;;8.23;3.33;;;19.40;70.10;;;;;;5040630;28;20083;-66
2023/07/17 02:56:46;;;;;;;7.45;3.50;;;19.40;70.20;;;;;;5060427;28;20028;-66
2023/07/17 02:59:12;;;;;;;8.13;3.45;;;19.40;70.30;;;;;;5060213;28;20420;-67
2023/07/17 03:01:38;;;;;;;7.97;3.97;;;19.30;70.30;;;;;;5040257;28;20029;-66
2023/07/17 03:04:04;;;;;;;7.60;2.90;;;19.30;70.30;;;;;;5059511;28;20028;-66
2023/07/17 03:06:29;;;;;;;8.43;2.85;;;19.30;71.00;;;;;;5040546;28;20445;-66
2023/07/17 03:08:55;;;;;;;9.13;2.90;;;19.30;70.30;;;;;;5041005;28;20025;-66
2023/07/17 03:11:21;;;;;;;6.22;3.13;;;19.30;70.40;;;;;;5042107;28;20106;-67
2023/07/17 03:13:47;;;;;;;9.10;3.50;;;19.20;70.40;;;;;;5060395;28;20025;-66
2023/07/17 03:16:12;;;;;;;7.50;2.90;;;19.20;70.50;;;;;;5042924;28;20024;-66
2023/07/17 03:18:38;;;;;;;8.10;3.28;;;19.20;70.50;;;;;;5062046;28;20147;-66
2023/07/17 03:21:04;;;;;;;8.02;3.17;;;19.20;70.60;;;;;;5052573;28;20478;-66
2023/07/17 03:23:30;;;;;;;8.13;3.20;;;19.10;70.50;;;;;;5038771;28;20362;-66
2023/07/17 03:25:57;;;;;;;8.18;2.83;;;19.10;70.60;;;;;;5039315;28;20450;-66
2023/07/17 03:28:22;;;;;;;6.35;2.92;;;19.10;70.60;;;;;;5043525;28;20099;-66
2023/07/17 03:30:48;;;;;;;8.02;2.85;;;19.10;70.60;;;;;;5060600;28;20071;-66
2023/07/17 03:33:16;;;;;;;7.88;3.33;;;19.10;70.60;;;;;;5064373;28;20021;-67
2023/07/17 03:35:45;;;;;;;7.60;3.38;;;19.10;70.60;;;;;;5039781;28;20063;-67
2023/07/17 03:38:11;;;;;;;6.15;2.72;;;19.10;70.60;;;;;;5049116;28;20132;-66
2023/07/17 03:40:36;;;;;;;8.68;3.65;;;19.10;70.60;;;;;;5034675;28;20076;-66
2023/07/17 03:43:03;;;;;;;7.35;3.08;;;19.10;70.50;;;;;;5035114;28;20025;-66
2023/07/17 03:45:29;;;;;;;6.13;2.97;;;19.10;70.50;;;;;;5038744;28;20055;-66
2023/07/17 03:47:55;;;;;;;6.35;2.80;;;19.00;70.50;;;;;;5040735;28;20437;-66
2023/07/17 03:50:21;;;;;;;9.60;3.08;;;19.00;70.50;;;;;;5036092;28;20032;-67
2023/07/17 03:52:47;;;;;;;7.38;3.38;;;19.00;70.40;;;;;;5056758;28;20032;-67
2023/07/17 03:55:13;;;;;;;6.78;2.85;;;19.00;70.20;;;;;;5051304;28;20029;-67
2023/07/17 03:57:39;;;;;;;9.35;3.25;;;19.00;70.10;;;;;;5059252;28;20021;-66
2023/07/17 04:00:10;;;;;;;8.70;3.05;;;19.10;70.20;;;;;;5042058;28;20016;-66
2023/07/17 04:02:39;;;;;;;7.82;3.33;;;19.00;70.10;;;;;;5058289;28;20036;-66
2023/07/17 04:05:07;;;;;;;8.20;3.05;;;19.00;70.10;;;;;;5039141;28;20078;-66
2023/07/17 04:07:33;;;;;;;8.25;3.35;;;19.00;70.10;;;;;;5035578;28;20032;-66
2023/07/17 04:09:58;;;;;;;7.20;3.20;;;19.00;70.00;;;;;;5053079;28;20107;-67
2023/07/17 04:12:24;;;;;;;9.90;3.10;;;18.90;70.00;;;;;;5053417;28;20033;-68
2023/07/17 04:14:50;;;;;;;8.35;3.30;;;18.90;69.90;;;;;;5055203;28;20416;-68
2023/07/17 04:17:16;;;;;;;8.02;3.03;;;19.00;70.10;;;;;;5054242;28;20021;-67
2023/07/17 04:19:41;;;;;;;8.27;3.20;;;19.00;70.10;;;;;;5054222;28;20121;-67
2023/07/17 04:25:55;;;;;;;6.88;3.08;;;19.00;70.10;;;;;;5071034;28;20440;-67
2023/07/17 04:28:23;;;;;;;7.65;3.30;;;18.90;70.00;;;;;;5054067;28;20051;-68
2023/07/17 04:30:49;;;;;;;9.73;4.03;;;18.90;70.00;;;;;;5055304;28;20083;-68
2023/07/17 04:33:15;;;;;;;7.85;3.10;;;18.90;70.00;;;;;;5053190;28;20119;-68
2023/07/17 04:35:42;;;;;;;7.82;3.40;;;19.00;70.00;;;;;;5053962;28;20021;-68
2023/07/17 04:38:08;;;;;;;9.95;3.25;;;18.90;69.90;;;;;;5071679;28;20023;-67
2023/07/17 04:40:34;;;;;;;9.65;3.30;;;18.90;69.90;;;;;;5054276;28;20059;-66
2023/07/17 04:43:01;;;;;;;7.65;3.05;;;19.00;69.90;;;;;;5036170;28;20147;-67
2023/07/17 04:45:27;;;;;;;5.85;2.78;;;19.00;69.80;;;;;;5053701;28;20044;-66
2023/07/17 04:47:55;;;;;;;9.00;3.58;;;19.00;69.80;;;;;;5035829;28;20503;-67
2023/07/17 04:50:26;;;;;;;9.45;4.05;;;19.00;69.80;;;;;;5055344;28;20020;-67
2023/07/17 04:52:52;;;;;;;7.63;3.50;;;19.00;69.60;;;;;;5069263;28;20043;-67
2023/07/17 04:55:18;;;;;;;10.75;3.38;;;19.00;69.50;;;;;;5055636;28;20031;-66
2023/07/17 05:01:31;;;;;;;8.40;3.72;;;19.10;69.40;;;;;;5075082;28;20055;-67
2023/07/17 05:03:57;;;;;;;7.70;3.22;;;19.10;69.40;;;;;;5057085;28;20377;-67
2023/07/17 05:06:23;;;;;;;9.35;3.65;;;19.00;69.20;;;;;;5057221;28;20714;-67
2023/07/17 05:08:48;;;;;;;9.07;3.65;;;19.10;69.20;;;;;;5056028;28;20025;-67
2023/07/17 05:11:14;;;;;;;8.43;3.60;;;19.10;69.10;;;;;;5058189;28;20116;-67
2023/07/17 05:13:45;;;;;;;6.55;3.05;;;19.20;69.10;;;;;;5055865;28;20021;-67
2023/07/17 05:16:12;;;;;;;9.35;3.38;;;19.20;69.00;;;;;;5057361;28;20016;-67
2023/07/17 05:18:39;;;;;;;8.63;4.22;;;19.10;68.90;;;;;;5039295;28;20459;-67
2023/07/17 05:21:04;;;;;;;9.32;3.47;;;19.20;68.80;;;;;;5074990;28;20047;-67
2023/07/17 05:23:31;;;;;;;9.55;3.80;;;19.40;68.70;;;;;;5057398;28;20365;-67
2023/07/17 05:26:01;;;;;;;8.55;3.80;;;19.80;67.50;;;;;;5057909;28;20029;-67
2023/07/17 05:28:30;;;;;;;11.63;4.15;;;20.00;66.70;;;;;;5073418;28;20036;-67
2023/07/17 05:30:56;;;;;;;10.40;3.95;;;19.90;66.60;;;;;;5072392;28;20021;-66
2023/07/17 05:33:23;;;;;;;10.63;4.05;;;19.90;66.80;;;;;;5044154;28;20335;-67
2023/07/17 05:35:50;;;;;;;10.32;4.30;;;19.80;67.00;;;;;;5034420;28;20025;-67
2023/07/17 05:38:17;;;;;;;11.70;5.32;;;19.80;67.10;;;;;;5054040;28;20115;-67
2023/07/17 05:40:44;;;;;;;8.70;4.38;;;19.80;67.10;;;;;;5056209;28;20028;-68
2023/07/17 05:43:10;;;;;;;8.25;4.18;;;19.80;67.00;;;;;;5039677;28;20032;-68
2023/07/17 05:45:41;;;;;;;10.60;4.60;;;19.80;67.00;;;;;;5054450;28;20024;-68
2023/07/17 05:48:06;;;;;;;9.18;4.32;;;19.90;66.80;;;;;;5050986;28;20024;-67
2023/07/17 05:50:33;;;;;;;9.70;4.63;;;19.90;66.70;;;;;;5055438;28;20040;-66
2023/07/17 05:52:59;;;;;;;11.35;5.60;;;20.00;66.50;;;;;;5056016;28;20012;-65
2023/07/17 05:55:24;;;;;;;10.02;4.72;;;20.00;67.00;;;;;;5070702;28;20120;-65
2023/07/17 05:57:50;;;;;;;11.98;5.63;;;20.00;66.20;;;;;;5056064;28;20016;-65
2023/07/17 06:00:18;;;;;;;9.95;4.30;;;20.00;66.30;;;;;;5055919;28;20111;-64
2023/07/17 06:02:44;;;;;;;11.70;5.35;;;20.10;66.40;;;;;;5056938;28;20040;-68
2023/07/17 06:05:10;;;;;;;12.25;5.55;;;20.10;66.00;;;;;;5072963;28;20492;-66
2023/07/17 06:07:37;;;;;;;10.68;5.47;;;20.10;65.70;;;;;;5075002;28;20060;-66
2023/07/17 06:10:03;;;;;;;13.40;5.40;;;20.10;65.60;;;;;;5074242;28;20025;-66
2023/07/17 06:12:29;;;;;;;10.60;5.13;;;20.20;65.60;;;;;;5075571;28;20354;-66
2023/07/17 06:14:55;;;;;;;12.75;5.90;;;20.20;65.40;;;;;;5057382;28;20035;-67
2023/07/17 06:20:46;;;;;;;12.05;5.10;;;20.40;65.00;;;;;;5073708;28;20060;-67
2023/07/17 06:23:12;;;;;;;11.35;5.32;;;20.30;64.90;;;;;;5057657;28;20032;-68
2023/07/17 06:25:38;;;;;;;11.23;5.32;;;20.40;64.90;;;;;;5056546;28;20040;-67
2023/07/17 06:28:04;;;;;;;11.93;5.80;;;20.40;64.70;;;;;;5074187;28;20403;-67
2023/07/17 06:30:31;;;;;;;11.48;5.20;;;20.50;64.60;;;;;;5072549;28;20421;-68
2023/07/17 06:32:57;;;;;;;11.68;5.38;;;20.60;64.60;;;;;;5075079;28;20028;-67
2023/07/17 06:35:23;;;;;;;12.10;5.20;;;20.70;64.40;;;;;;5056316;28;20457;-65
2023/07/17 06:37:49;;;;;;;11.85;6.25;;;20.80;64.20;;;;;;5073233;28;20146;-68
2023/07/17 06:41:21;;;;;;;12.07;6.55;;;20.90;64.20;;;;;;5067146;28;20028;-66
2023/07/17 06:43:46;;;;;;;13.10;6.00;;;21.00;63.90;;;;;;5046375;28;20111;-67
2023/07/17 06:46:13;;;;;;;12.02;5.15;;;20.90;63.80;;;;;;5074264;28;20103;-68
2023/07/17 06:48:39;;;;;;;11.57;5.55;;;20.90;63.90;;;;;;5055870;28;20082;-68
2023/07/17 06:51:04;;;;;;;11.50;6.25;;;20.80;63.80;;;;;;5071445;28;20400;-67
2023/07/17 06:53:31;;;;;;;11.15;5.90;;;20.90;63.80;;;;;;5073947;28;20025;-68
2023/07/17 06:56:00;;;;;;;15.07;5.70;;;20.90;63.70;;;;;;5068663;28;20059;-68
2023/07/17 06:58:27;;;;;;;12.20;5.75;;;21.00;63.40;;;;;;5068886;28;20032;-67
2023/07/17 07:01:00;;;;;;;16.23;6.20;;;21.10;63.40;;;;;;5065092;28;20032;-68
2023/07/17 07:03:27;;;;;;;14.43;6.43;;;21.20;63.20;;;;;;5070938;28;20075;-71
2023/07/17 07:06:00;;;;;;;15.60;7.00;;;21.10;63.10;;;;;;5039967;28;20098;-69
2023/07/17 07:08:28;;;;;;;11.48;5.70;;;21.20;63.10;;;;;;5049643;28;20094;-71
2023/07/17 07:10:56;;;;;;;13.77;6.30;;;21.20;63.00;;;;;;5051009;28;20036;-72
2023/07/17 07:13:22;;;;;;;11.63;6.05;;;21.20;62.80;;;;;;5049464;28;20374;-70
2023/07/17 07:15:48;;;;;;;13.45;6.15;;;21.20;62.80;;;;;;5069492;28;20028;-71
2023/07/17 07:18:14;;;;;;;12.43;5.45;;;21.20;62.80;;;;;;5068475;28;20337;-71
2023/07/17 07:20:40;;;;;;;11.25;5.80;;;21.20;62.70;;;;;;5066240;28;20053;-69
2023/07/17 07:23:06;;;;;;;13.20;5.85;;;21.20;62.70;;;;;;5066773;28;20408;-66
2023/07/17 07:25:33;;;;;;;11.32;5.70;;;21.20;62.80;;;;;;5050366;28;20368;-65
2023/07/17 07:28:02;;;;;;;11.63;5.57;;;21.00;62.80;;;;;;5067875;28;20401;-66
2023/07/17 07:30:28;;;;;;;12.15;5.25;;;21.00;63.00;;;;;;5064342;28;20036;-66
2023/07/17 07:32:53;;;;;;;11.77;6.28;;;21.00;63.20;;;;;;5068593;28;20465;-66
2023/07/17 07:35:19;;;;;;;11.05;5.57;;;21.10;63.30;;;;;;5070860;28;20039;-66
2023/07/17 07:37:46;;;;;;;9.50;5.18;;;21.10;63.00;;;;;;5058292;28;20017;-66
2023/07/17 07:40:12;;;;;;;12.40;5.95;;;21.30;62.80;;;;;;5051497;28;20300;-66
2023/07/17 07:42:45;;;;;;;11.55;4.97;;;21.60;62.20;;;;;;5046868;28;20021;-66
2023/07/17 07:45:12;;;;;;;14.70;6.05;;;22.00;61.30;;;;;;5055799;28;20033;-66
2023/07/17 07:47:39;;;;;;;10.77;5.28;;;22.10;60.90;;;;;;5060703;28;20439;-66
2023/07/17 07:50:05;;;;;;;11.23;4.75;;;22.30;60.50;;;;;;5062730;28;20461;-66
2023/07/17 07:52:31;;;;;;;12.48;4.55;;;22.40;60.20;;;;;;5065814;28;20108;-66
2023/07/17 07:54:57;;;;;;;12.00;4.97;;;22.40;59.70;;;;;;5052248;28;20124;-66
2023/07/17 07:57:22;;;;;;;10.65;5.13;;;22.30;59.80;;;;;;5067580;28;20032;-66
2023/07/17 07:59:49;;;;;;;11.88;5.28;;;22.20;59.90;;;;;;5067778;28;20028;-66
2023/07/17 08:02:15;;;;;;;8.77;4.60;;;22.00;59.80;;;;;;5070046;28;20028;-66
2023/07/17 08:04:41;;;;;;;11.48;5.13;;;22.10;60.00;;;;;;5067345;28;20073;-66
2023/07/17 08:07:07;;;;;;;10.25;5.22;;;22.20;59.90;;;;;;5066633;28;20088;-66
2023/07/17 08:09:33;;;;;;;11.18;4.78;;;22.10;59.70;;;;;;5069078;28;20032;-66
2023/07/17 08:11:59;;;;;;;12.73;5.15;;;22.30;59.50;;;;;;5067454;28;20028;-66
2023/07/17 08:14:24;;;;;;;8.55;4.35;;;22.60;58.80;;;;;;5066810;28;20060;-66
2023/07/17 08:16:51;;;;;;;9.40;4.40;;;22.90;58.30;;;;;;5067822;28;20025;-66
2023/07/17 08:19:18;;;;;;;12.38;4.80;;;23.10;57.70;;;;;;5067740;28;20063;-66
2023/07/17 08:21:44;;;;;;;10.25;4.28;;;23.10;57.50;;;;;;5048980;28;20056;-66
2023/07/17 08:24:10;;;;;;;10.32;5.10;;;23.10;57.40;;;;;;5066962;28;20059;-66
2023/07/17 08:26:38;;;;;;;12.38;4.60;;;23.00;57.30;;;;;;5067440;28;20070;-66
2023/07/17 08:29:04;;;;;;;9.30;3.85;;;22.90;57.40;;;;;;5068924;28;20032;-66
2023/07/17 08:31:33;;;;;;;9.48;4.38;;;23.10;57.40;;;;;;5067048;28;20127;-66
2023/07/17 08:34:00;;;;;;;8.02;3.45;;;23.40;56.90;;;;;;5068277;28;20013;-66
2023/07/17 08:36:27;;;;;;;9.82;3.97;;;23.60;56.20;;;;;;5066788;28;20040;-66
2023/07/17 08:38:53;;;;;;;10.10;3.95;;;23.60;56.00;;;;;;5068387;28;20453;-66
2023/07/17 08:41:19;;;;;;;10.55;4.75;;;23.40;56.10;;;;;;5068998;28;20039;-66
2023/07/17 08:43:45;;;;;;;9.85;3.90;;;23.30;56.30;;;;;;5069312;28;20044;-66
2023/07/17 08:46:12;;;;;;;10.88;3.88;;;23.50;56.00;;;;;;5051269;28;20041;-66
2023/07/17 08:48:45;;;;;;;7.60;3.60;;;23.50;55.80;;;;;;5066988;28;20386;-66
2023/07/17 08:51:12;;;;;;;7.70;3.33;;;23.70;55.50;;;;;;5068067;28;21234;-66
2023/07/17 08:53:41;;;;;;;9.18;3.60;;;24.00;55.20;;;;;;5069016;28;20029;-66
2023/07/17 08:56:08;;;;;;;9.20;3.60;;;24.30;54.50;;;;;;5049288;28;20036;-66
2023/07/17 08:58:35;;;;;;;8.38;3.38;;;24.50;54.00;;;;;;5069097;28;20311;-66
2023/07/17 09:01:01;;;;;;;9.38;3.70;;;24.40;53.70;;;;;;5068882;28;20090;-66
2023/07/17 09:03:28;;;;;;;10.43;3.90;;;24.40;53.60;;;;;;5069075;28;20072;-66
2023/07/17 09:05:53;;;;;;;8.10;3.47;;;24.10;53.60;;;;;;5067748;28;20101;-66
2023/07/17 09:08:19;;;;;;;8.60;3.42;;;24.00;53.80;;;;;;5050818;28;20521;-66
2023/07/17 09:10:45;;;;;;;8.80;3.58;;;24.10;54.60;;;;;;5069070;28;20032;-66
2023/07/17 09:13:11;;;;;;;8.15;3.53;;;24.30;53.70;;;;;;5052004;28;20027;-66
2023/07/17 09:15:38;;;;;;;7.13;3.05;;;24.50;53.20;;;;;;5068892;28;20060;-66
2023/07/17 09:18:04;;;;;;;8.20;2.83;;;24.70;52.70;;;;;;5066643;28;20024;-66
2023/07/17 09:20:30;;;;;;;9.55;3.80;;;24.70;52.60;;;;;;5071968;28;20484;-66
2023/07/17 09:22:59;;;;;;;10.25;3.63;;;24.60;52.60;;;;;;5071355;28;20108;-66
2023/07/17 09:25:30;;;;;;;9.75;3.42;;;24.40;52.60;;;;;;5073056;28;20036;-66
2023/07/17 09:27:57;;;;;;;8.95;3.63;;;24.10;52.70;;;;;;5065152;28;20031;-66
2023/07/17 09:30:24;;;;;;;11.27;3.53;;;23.90;53.30;;;;;;5065718;28;20016;-67
2023/07/17 09:32:51;;;;;;;12.15;3.33;;;23.60;53.40;;;;;;5065782;28;20453;-66
2023/07/17 09:35:23;;;;;;;7.00;2.97;;;23.60;53.70;;;;;;5065966;28;20111;-66
2023/07/17 09:37:50;;;;;;;8.27;3.53;;;23.90;53.40;;;;;;5065214;28;20330;-66
2023/07/17 09:40:19;;;;;;;7.38;3.25;;;24.40;52.90;;;;;;5065185;28;20024;-67
2023/07/17 09:42:52;;;;;;;12.68;4.32;;;24.80;52.30;;;;;;5051414;28;20194;-67
2023/07/17 09:45:19;;;;;;;8.70;3.25;;;25.20;51.70;;;;;;5070074;28;20025;-66
2023/07/17 09:47:50;;;;;;;7.78;3.20;;;25.30;51.40;;;;;;5069320;28;20040;-66
2023/07/17 09:50:18;;;;;;;;;;;25.10;51.10;;;;;;5069890;28;20361;-66
2023/07/17 09:52:45;;;;;;;6.78;2.78;;;24.90;51.60;;;;;;5039078;28;19946;-67
2023/07/17 09:55:11;;;;;;;7.75;3.13;;;24.70;51.90;;;;;;5067543;28;20097;-67
2023/07/17 09:57:39;;;;;;;8.82;2.90;;;24.60;51.90;;;;;;5067959;28;20399;-67
2023/07/17 10:00:17;;;;;;;7.60;2.20;;;24.80;51.60;;;;;;5068082;28;20449;-67
2023/07/17 10:03:07;;;;;;;8.90;3.00;;;24.90;51.10;;;;;;5068504;28;20033;-67
2023/07/17 10:05:35;;;;;;;5.68;2.47;;;24.70;51.20;;;;;;5052037;28;20033;-67
2023/07/17 10:08:05;;;;;;;7.93;2.30;;;24.50;51.60;;;;;;5069488;28;20123;-67
2023/07/17 10:10:31;;;;;;;11.43;3.17;;;24.20;51.40;;;;;;5069090;28;20013;-66
2023/07/17 10:12:57;;;;;;;7.60;3.13;;;24.00;51.70;;;;;;5071782;28;20503;-67
2023/07/17 10:15:23;;;;;;;8.70;2.92;;;23.80;51.90;;;;;;5051994;28;20503;-67
2023/07/17 10:17:57;;;;;;;8.52;2.88;;;23.60;52.10;;;;;;5067957;28;20041;-67
2023/07/17 10:20:24;;;;;;;7.78;2.70;;;23.50;52.40;;;;;;5065519;28;20036;-67
2023/07/17 10:22:49;;;;;;;7.63;2.80;;;23.40;52.50;;;;;;5071807;28;20056;-66
2023/07/17 10:25:18;;;;;;;9.85;3.80;;;23.40;52.70;;;;;;5068415;28;20060;-67
2023/07/17 10:27:47;;;;;;;7.90;3.00;;;23.60;52.60;;;;;;5069901;28;20025;-67
2023/07/17 10:30:33;;;;;;;7.13;2.45;;;23.70;52.50;;;;;;5052485;28;20028;-67
2023/07/17 10:33:16;;;;;;;6.28;2.47;;;24.00;52.00;;;;;;5067103;28;20043;-67
2023/07/17 10:35:53;;;;;;;11.23;3.38;;;24.20;51.70;;;;;;5067733;28;20035;-67
2023/07/17 10:38:26;;;;;;;7.93;2.60;;;24.40;51.40;;;;;;5070387;28;20016;-68
2023/07/17 10:41:05;;;;;;;8.63;3.00;;;24.60;51.10;;;;;;5051709;28;20476;-67
2023/07/17 10:43:33;;;;;;;7.65;2.90;;;24.80;50.60;;;;;;5069845;28;20040;-67
2023/07/17 10:45:59;;;;;;;7.30;2.50;;;24.70;50.50;;;;;;5050459;28;20029;-67
2023/07/17 10:48:26;;;;;;;8.35;2.88;;;24.70;50.60;;;;;;5053911;28;20154;-67
2023/07/17 10:50:54;;;;;;;6.78;2.42;;;24.40;50.70;;;;;;5069748;28;20056;-67
2023/07/17 10:53:20;;;;;;;3.83;1.58;;;24.10;50.90;;;;;;5049157;28;20028;-67
2023/07/17 10:55:46;;;;;;;5.03;1.80;;;23.60;51.50;;;;;;5062951;28;20021;-66
2023/07/17 10:58:13;;;;;;;3.70;1.63;;;23.20;52.50;;;;;;5075372;28;20047;-66
2023/07/17 11:00:43;;;;;;;3.97;1.63;;;22.90;53.50;;;;;;5037788;28;20167;-66
2023/07/17 11:03:13;;;;;;;5.35;1.70;;;22.60;54.50;;;;;;5072149;28;20028;-66
2023/07/17 11:05:40;;;;;;;3.70;1.33;;;22.40;55.10;;;;;;5075195;28;20117;-66
2023/07/17 11:08:08;;;;;;;4.50;1.60;;;22.30;55.60;;;;;;5073350;28;20108;-67
2023/07/17 11:10:35;;;;;;;4.20;1.58;;;22.50;55.50;;;;;;5063661;28;20040;-67
2023/07/17 11:13:03;;;;;;;3.72;1.45;;;22.90;54.90;;;;;;5068090;28;20069;-67
2023/07/17 11:15:32;;;;;;;4.10;1.50;;;23.20;54.20;;;;;;5052995;28;20032;-67
2023/07/17 11:18:00;;;;;;;4.60;1.90;;;23.40;53.80;;;;;;5049662;28;20032;-67
2023/07/17 11:20:26;;;;;;;4.63;1.60;;;23.60;53.50;;;;;;5045857;28;20102;-67
2023/07/17 11:22:52;;;;;;;5.05;1.20;;;23.70;53.10;;;;;;5048423;28;20354;-67
2023/07/17 11:25:19;;;;;;;5.00;1.52;;;23.70;53.10;;;;;;5046798;28;20033;-67
2023/07/17 11:27:46;;;;;;;3.90;1.40;;;23.60;53.40;;;;;;5048615;28;20063;-67
2023/07/17 11:30:18;;;;;;;6.80;1.63;;;23.70;53.50;;;;;;5049968;28;20048;-67
2023/07/17 11:32:49;;;;;;;5.10;1.60;;;24.00;53.30;;;;;;5048340;28;20043;-66
2023/07/17 11:35:15;;;;;;;;;;;24.30;53.10;;;;;;5046751;28;20031;-67
2023/07/17 11:37:41;;;;;;;6.20;2.13;;;24.30;52.70;;;;;;5048225;28;19909;-67
2023/07/17 11:40:08;;;;;;;8.55;2.42;;;24.20;52.90;;;;;;5048051;28;20044;-67
2023/07/17 11:43:04;;;;;;;6.25;2.15;;;24.00;53.20;;;;;;5047781;28;20056;-67
2023/07/17 11:45:30;;;;;;;6.18;1.80;;;24.20;53.10;;;;;;5031386;28;20052;-67
2023/07/17 11:47:57;;;;;;;5.20;1.95;;;24.10;53.30;;;;;;5050037;28;20102;-66
2023/07/17 11:50:25;;;;;;;5.03;1.83;;;24.00;53.30;;;;;;5050248;28;20028;-65
2023/07/17 11:53:13;;;;;;;7.30;2.08;;;24.00;53.30;;;;;;5051253;28;20064;-66
2023/07/17 11:55:40;;;;;;;7.72;1.98;;;24.00;53.20;;;;;;5049629;28;20020;-66
2023/07/17 11:58:20;;;;;;;5.63;2.03;;;24.00;53.30;;;;;;5045434;28;20104;-66
2023/07/17 12:00:48;;;;;;;6.70;2.30;;;23.80;53.50;;;;;;5048185;28;20339;-66
2023/07/17 12:03:14;;;;;;;5.60;2.15;;;23.60;54.00;;;;;;5044993;28;20051;-67
2023/07/17 12:05:40;;;;;;;7.00;2.78;;;23.40;54.30;;;;;;5051724;28;20036;-67
2023/07/17 12:08:06;;;;;;;6.72;2.60;;;23.30;54.60;;;;;;5048100;28;20033;-67
2023/07/17 12:10:33;;;;;;;6.90;2.65;;;23.10;54.70;;;;;;5051482;28;20071;-67
2023/07/17 12:12:59;;;;;;;7.43;2.90;;;23.10;54.90;;;;;;5051708;28;20049;-67
2023/07/17 12:15:27;;;;;;;8.68;2.65;;;23.10;55.00;;;;;;5051987;28;20126;-67
2023/07/17 12:17:54;;;;;;;6.63;2.60;;;23.00;55.40;;;;;;5052383;28;20025;-67
2023/07/17 12:20:22;;;;;;;10.90;3.42;;;23.00;55.60;;;;;;5051208;28;20052;-67
2023/07/17 12:22:53;;;;;;;7.40;2.58;;;23.10;55.80;;;;;;5047183;28;20029;-67
2023/07/17 12:25:19;;;;;;;;;;;23.10;56.10;;;;;;5050812;28;20147;-67
2023/07/17 12:27:45;;;;;;;8.52;3.13;;;23.20;56.10;;;;;;5053047;28;19913;-67
2023/07/17 12:30:12;;;;;;;5.95;2.78;;;23.20;56.30;;;;;;5054270;28;20108;-67
2023/07/17 12:32:38;;;;;;;9.05;2.85;;;23.20;56.70;;;;;;5054113;28;20215;-67
2023/07/17 12:35:07;;;;;;;8.75;3.03;;;23.20;56.60;;;;;;5053014;28;20465;-67
2023/07/17 12:37:33;;;;;;;9.40;2.83;;;23.10;56.80;;;;;;5067465;28;20037;-67
2023/07/17 12:40:00;;;;;;;6.57;3.17;;;23.20;57.00;;;;;;5053031;28;20027;-67
2023/07/17 12:42:26;;;;;;;8.23;3.20;;;23.30;56.90;;;;;;5054256;28;20040;-67
2023/07/17 12:44:52;;;;;;;6.00;2.72;;;23.50;56.70;;;;;;5069354;28;20075;-67
2023/07/17 12:47:18;;;;;;;8.13;3.03;;;23.60;56.40;;;;;;5067898;28;20167;-67
2023/07/17 12:49:44;;;;;;;7.72;3.20;;;23.60;56.00;;;;;;5053036;28;20465;-67
2023/07/17 12:52:10;;;;;;;9.20;3.40;;;23.60;55.40;;;;;;5054069;28;20362;-67
2023/07/17 12:54:35;;;;;;;9.32;3.63;;;23.50;55.50;;;;;;5054633;28;20540;-67
2023/07/17 12:57:02;;;;;;;9.70;3.78;;;23.50;55.60;;;;;;5053604;28;20025;-67